createdAt,value
2023-01-27T00:01:08.990Z,15.67
2023-01-27T00:03:36.205Z,16.77
2023-01-27T00:06:06.443Z,16.90
2023-01-27T00:08:33.597Z,15.47
2023-01-27T00:11:20.051Z,13.87
2023-01-27T00:13:47.168Z,14.63
2023-01-27T00:16:14.292Z,14.70
2023-01-27T00:18:41.462Z,15.00
2023-01-27T00:21:26.788Z,14.30
2023-01-27T00:24:12.226Z,15.43
2023-01-27T00:26:39.410Z,15.23
2023-01-27T00:29:06.516Z,14.67
2023-01-27T00:31:51.932Z,14.87
2023-01-27T00:34:19.286Z,14.97
2023-01-27T00:36:46.370Z,14.53
2023-01-27T00:39:14.052Z,13.60
2023-01-27T00:41:43.826Z,13.07
2023-01-27T00:44:13.429Z,13.30
2023-01-27T00:46:42.997Z,13.17
2023-01-27T00:49:13.269Z,14.17
2023-01-27T00:51:40.730Z,13.03
2023-01-27T00:54:08.241Z,13.83
2023-01-27T00:56:35.603Z,12.37
2023-01-27T00:59:02.843Z,11.77
2023-01-27T01:01:30.467Z,11.97
2023-01-27T01:03:58.945Z,11.47
2023-01-27T01:06:27.070Z,11.93
2023-01-27T01:08:56.836Z,11.73
2023-01-27T01:11:24.638Z,12.83
2023-01-27T01:13:52.637Z,12.37
2023-01-27T01:16:23.816Z,13.17
2023-01-27T01:18:51.090Z,12.70
2023-01-27T01:21:18.326Z,12.67
2023-01-27T01:23:46.562Z,12.13
2023-01-27T01:26:16.312Z,12.57
2023-01-27T01:28:45.828Z,12.33
2023-01-27T01:31:17.299Z,13.03
2023-01-27T01:33:44.928Z,11.87
2023-01-27T01:36:16.732Z,12.33
2023-01-27T01:38:44.248Z,11.87
2023-01-27T01:41:17.146Z,11.77
2023-01-27T01:43:44.582Z,11.77
2023-01-27T01:46:13.717Z,11.13
2023-01-27T01:48:58.728Z,11.30
2023-01-27T01:51:41.954Z,11.27
2023-01-27T01:54:35.621Z,11.60
2023-01-27T01:57:11.065Z,11.17
2023-01-27T02:00:09.542Z,12.03
2023-01-27T02:02:43.577Z,10.93
2023-01-27T02:05:36.037Z,11.83
2023-01-27T02:08:15.512Z,11.93
2023-01-27T02:10:44.807Z,12.73
2023-01-27T02:13:11.982Z,12.23
2023-01-27T02:15:39.682Z,12.60
2023-01-27T02:18:07.879Z,12.97
2023-01-27T02:20:52.070Z,13.47
2023-01-27T02:23:43.936Z,14.27
2023-01-27T02:26:32.397Z,13.23
2023-01-27T02:29:05.940Z,12.37
2023-01-27T02:31:33.257Z,13.93
2023-01-27T02:34:24.652Z,12.93
2023-01-27T02:36:57.917Z,12.77
2023-01-27T02:39:33.524Z,12.73
2023-01-27T02:42:03.218Z,12.73
2023-01-27T02:44:30.347Z,14.33
2023-01-27T02:46:57.409Z,14.83
2023-01-27T02:49:24.643Z,14.63
2023-01-27T02:51:51.760Z,15.23
2023-01-27T02:54:18.875Z,15.27
2023-01-27T02:56:45.994Z,14.87
2023-01-27T02:59:15.742Z,14.10
2023-01-27T03:01:43.040Z,15.30
2023-01-27T03:04:12.037Z,14.07
2023-01-27T03:06:39.581Z,13.60
2023-01-27T03:09:06.651Z,13.90
2023-01-27T03:11:52.698Z,14.63
2023-01-27T03:14:20.111Z,14.53
2023-01-27T03:17:06.629Z,14.87
2023-01-27T03:19:33.848Z,13.57
2023-01-27T03:22:01.901Z,14.87
2023-01-27T03:24:30.908Z,12.83
2023-01-27T03:27:01.918Z,13.13
2023-01-27T03:29:56.075Z,13.70
2023-01-27T03:32:29.558Z,14.77
2023-01-27T03:35:38.770Z,13.83
2023-01-27T03:38:29.871Z,13.10
2023-01-27T03:41:15.667Z,13.67
2023-01-27T03:44:01.055Z,14.13
2023-01-27T03:46:32.835Z,15.50
2023-01-27T03:49:00.052Z,14.90
2023-01-27T03:51:27.674Z,14.93
2023-01-27T03:53:54.827Z,15.20
2023-01-27T03:56:22.998Z,14.20
2023-01-27T03:58:50.913Z,14.87
2023-01-27T04:01:21.698Z,15.37
2023-01-27T04:04:08.631Z,13.13
2023-01-27T04:06:55.348Z,14.53
2023-01-27T04:09:35.549Z,14.47
2023-01-27T04:12:06.151Z,17.70
2023-01-27T04:14:39.260Z,14.97
2023-01-27T04:17:17.333Z,14.43
2023-01-27T04:19:46.167Z,15.70
2023-01-27T04:22:15.851Z,16.30
2023-01-27T04:24:43.641Z,15.50
2023-01-27T04:27:13.869Z,16.07
2023-01-27T04:29:42.696Z,16.07
2023-01-27T04:32:12.173Z,15.00
2023-01-27T04:34:40.613Z,14.73
2023-01-27T04:37:09.911Z,15.00
2023-01-27T04:39:37.659Z,15.90
2023-01-27T04:42:05.089Z,16.23
2023-01-27T04:44:32.153Z,16.00
2023-01-27T04:46:59.202Z,15.23
2023-01-27T04:49:27.199Z,15.07
2023-01-27T04:51:55.456Z,15.83
2023-01-27T04:54:22.609Z,14.73
2023-01-27T04:56:59.939Z,15.43
2023-01-27T04:59:27.312Z,16.40
2023-01-27T05:01:54.567Z,16.83
2023-01-27T05:04:21.755Z,16.77
2023-01-27T05:06:48.965Z,15.87
2023-01-27T05:09:16.093Z,15.47
2023-01-27T05:11:43.226Z,16.63
2023-01-27T05:14:10.326Z,14.60
2023-01-27T05:16:38.879Z,14.73
2023-01-27T05:19:07.386Z,16.10
2023-01-27T05:21:34.539Z,15.87
2023-01-27T05:24:02.680Z,15.43
2023-01-27T05:26:29.902Z,16.23
2023-01-27T05:28:59.056Z,17.03
2023-01-27T05:31:31.627Z,17.37
2023-01-27T05:34:01.326Z,17.30
2023-01-27T05:36:29.796Z,17.40
2023-01-27T05:38:58.679Z,16.60
2023-01-27T05:41:26.460Z,16.60
2023-01-27T05:43:55.923Z,15.73
2023-01-27T05:46:33.621Z,17.10
2023-01-27T05:49:06.850Z,17.30
2023-01-27T05:51:42.009Z,17.33
2023-01-27T05:54:10.394Z,18.30
2023-01-27T05:56:37.902Z,17.57
2023-01-27T05:59:05.119Z,17.80
2023-01-27T06:01:34.387Z,17.73
2023-01-27T06:04:02.134Z,15.73
2023-01-27T06:06:31.910Z,17.70
2023-01-27T06:08:59.917Z,17.40
2023-01-27T06:11:27.511Z,17.47
2023-01-27T06:13:55.211Z,17.20
2023-01-27T06:16:23.411Z,16.93
2023-01-27T06:18:50.913Z,18.03
2023-01-27T06:21:18.250Z,17.83
2023-01-27T06:23:45.317Z,17.53
2023-01-27T06:26:17.988Z,18.70
2023-01-27T06:28:45.716Z,19.10
2023-01-27T06:31:17.130Z,17.20
2023-01-27T06:33:44.307Z,17.90
2023-01-27T06:36:16.073Z,18.50
2023-01-27T06:38:44.854Z,18.87
2023-01-27T06:41:12.027Z,18.43
2023-01-27T06:43:39.275Z,18.80
2023-01-27T06:46:06.613Z,19.00
2023-01-27T06:48:34.634Z,19.80
2023-01-27T06:51:01.746Z,17.60
2023-01-27T06:53:28.963Z,19.13
2023-01-27T06:56:01.549Z,18.53
2023-01-27T06:58:29.570Z,19.97
2023-01-27T07:00:57.138Z,21.93
2023-01-27T07:03:24.695Z,21.80
2023-01-27T07:05:52.933Z,23.47
2023-01-27T07:08:20.001Z,20.57
2023-01-27T07:10:47.114Z,20.87
2023-01-27T07:13:15.306Z,21.80
2023-01-27T07:15:42.722Z,23.87
2023-01-27T07:18:12.385Z,24.70
2023-01-27T07:20:40.136Z,24.53
2023-01-27T07:23:07.568Z,21.80
2023-01-27T07:25:35.605Z,22.73
2023-01-27T07:28:03.382Z,21.20
2023-01-27T07:30:30.648Z,20.30
2023-01-27T07:33:08.479Z,21.13
2023-01-27T07:35:37.212Z,22.77
2023-01-27T07:38:06.067Z,23.23
2023-01-27T07:40:33.421Z,23.77
2023-01-27T07:43:02.219Z,21.80
2023-01-27T07:45:29.925Z,21.87
2023-01-27T07:48:05.934Z,25.20
2023-01-27T07:50:33.748Z,25.30
2023-01-27T07:53:03.225Z,26.17
2023-01-27T07:55:32.128Z,27.07
2023-01-27T07:57:59.335Z,26.20
2023-01-27T08:00:26.701Z,25.83
2023-01-27T08:02:55.603Z,25.43
2023-01-27T08:05:23.284Z,27.57
2023-01-27T08:07:51.687Z,28.37
2023-01-27T08:10:19.604Z,26.97
2023-01-27T08:12:47.056Z,27.97
2023-01-27T08:15:16.598Z,28.57
2023-01-27T08:17:45.524Z,25.93
2023-01-27T08:20:13.286Z,27.00
2023-01-27T08:22:41.820Z,25.20
2023-01-27T08:25:09.400Z,23.47
2023-01-27T08:27:36.460Z,20.90
2023-01-27T08:30:03.940Z,23.07
2023-01-27T08:32:31.164Z,21.73
2023-01-27T08:34:58.599Z,22.77
2023-01-27T08:37:25.716Z,21.77
2023-01-27T08:39:52.814Z,20.27
2023-01-27T08:42:19.949Z,19.73
2023-01-27T08:44:47.226Z,20.90
2023-01-27T08:47:14.389Z,19.70
2023-01-27T08:49:41.509Z,19.20
2023-01-27T08:52:08.547Z,22.97
2023-01-27T08:54:35.664Z,17.50
2023-01-27T08:57:02.719Z,20.23
2023-01-27T08:59:29.779Z,18.20
2023-01-27T09:01:56.988Z,17.37
2023-01-27T09:04:24.104Z,17.50
2023-01-27T09:06:51.890Z,16.73
2023-01-27T09:09:18.909Z,17.30
2023-01-27T09:11:47.357Z,16.07
2023-01-27T09:14:14.688Z,16.07
2023-01-27T09:16:41.808Z,16.03
2023-01-27T09:19:09.289Z,15.20
2023-01-27T09:21:36.403Z,12.97
2023-01-27T09:24:03.661Z,12.57
2023-01-27T09:26:30.959Z,12.87
2023-01-27T09:28:58.063Z,12.03
2023-01-27T09:31:25.352Z,12.97
2023-01-27T09:33:52.445Z,12.97
2023-01-27T09:36:21.718Z,13.33
2023-01-27T09:39:06.525Z,13.30
2023-01-27T09:42:21.904Z,14.93
2023-01-27T09:45:23.833Z,13.53
2023-01-27T09:48:22.148Z,12.07
2023-01-27T09:51:05.925Z,12.77
2023-01-27T09:53:47.982Z,12.07
2023-01-27T09:56:43.772Z,11.70
2023-01-27T09:59:34.315Z,12.33
2023-01-27T10:02:13.130Z,11.23
2023-01-27T10:04:53.632Z,12.90
2023-01-27T10:07:48.264Z,14.27
2023-01-27T10:10:38.482Z,13.37
2023-01-27T10:13:18.769Z,18.10
2023-01-27T10:16:30.651Z,15.27
2023-01-27T10:19:32.523Z,13.23
2023-01-27T10:22:38.488Z,11.40
2023-01-27T10:25:39.594Z,14.90
2023-01-27T10:28:15.174Z,12.60
2023-01-27T10:31:18.095Z,13.47
2023-01-27T10:33:56.355Z,11.67
2023-01-27T10:36:33.845Z,13.67
2023-01-27T10:39:46.986Z,12.77
2023-01-27T10:42:47.329Z,13.63
2023-01-27T10:45:35.901Z,13.43
2023-01-27T10:48:46.424Z,13.00
2023-01-27T10:51:32.231Z,13.07
2023-01-27T10:54:33.173Z,12.73
2023-01-27T10:57:07.996Z,13.40
2023-01-27T11:00:54.844Z,13.30
2023-01-27T11:03:14.025Z,20.43
2023-01-27T11:05:47.396Z,16.37
2023-01-27T11:08:31.683Z,15.27
2023-01-27T11:11:22.175Z,16.83
2023-01-27T11:13:51.045Z,15.77
2023-01-27T11:16:20.088Z,14.63
2023-01-27T11:18:55.779Z,14.73
2023-01-27T11:21:28.584Z,13.50
2023-01-27T11:23:59.335Z,13.60
2023-01-27T11:26:54.153Z,12.40
2023-01-27T11:29:36.021Z,13.83
2023-01-27T11:32:39.561Z,14.83
2023-01-27T11:35:15.415Z,15.77
2023-01-27T11:37:49.544Z,15.47
2023-01-27T11:40:36.172Z,15.70
2023-01-27T11:43:05.074Z,16.50
2023-01-27T11:45:35.953Z,15.33
2023-01-27T11:48:08.519Z,16.43
2023-01-27T11:50:36.407Z,16.53
2023-01-27T11:53:41.117Z,18.00
2023-01-27T11:56:19.015Z,16.73
2023-01-27T11:59:03.845Z,17.13
2023-01-27T12:02:01.766Z,16.87
2023-01-27T12:05:05.057Z,17.37
2023-01-27T12:07:56.936Z,15.77
2023-01-27T12:10:42.447Z,16.97
2023-01-27T12:13:20.170Z,17.27
2023-01-27T12:15:53.985Z,17.83
2023-01-27T12:18:23.605Z,16.70
2023-01-27T12:21:03.120Z,16.90
2023-01-27T12:23:37.737Z,17.33
2023-01-27T12:26:10.479Z,16.83
2023-01-27T12:28:51.981Z,15.80
2023-01-27T12:31:31.493Z,15.93
2023-01-27T12:34:39.533Z,16.70
2023-01-27T12:37:08.200Z,15.40
2023-01-27T12:39:57.083Z,16.00
2023-01-27T12:42:48.193Z,16.37
2023-01-27T12:45:29.997Z,18.47
2023-01-27T12:48:12.977Z,16.07
2023-01-27T12:50:49.544Z,17.20
2023-01-27T12:53:19.672Z,16.30
2023-01-27T12:55:55.242Z,16.87
2023-01-27T12:58:47.568Z,17.37
2023-01-27T13:01:20.661Z,17.87
2023-01-27T13:04:14.113Z,15.63
2023-01-27T13:06:54.634Z,17.00
2023-01-27T13:09:53.624Z,18.47
2023-01-27T13:12:37.202Z,16.43
2023-01-27T13:15:21.460Z,17.57
2023-01-27T13:17:59.212Z,15.90
2023-01-27T13:20:45.060Z,17.77
2023-01-27T13:23:30.313Z,17.77
2023-01-27T13:26:09.747Z,15.57
2023-01-27T13:28:53.507Z,17.30
2023-01-27T13:31:44.113Z,17.40
2023-01-27T13:34:55.161Z,18.20
2023-01-27T13:37:39.615Z,18.73
2023-01-27T13:40:17.192Z,17.90
2023-01-27T13:42:58.014Z,18.17
2023-01-27T13:45:55.354Z,17.27
2023-01-27T13:48:32.217Z,18.67
2023-01-27T13:51:11.907Z,19.23
2023-01-27T13:53:39.777Z,19.07
2023-01-27T13:56:31.054Z,18.53
2023-01-27T13:59:25.109Z,17.63
2023-01-27T14:01:57.988Z,17.23
2023-01-27T14:04:57.848Z,16.83
2023-01-27T14:07:48.673Z,17.33
2023-01-27T14:10:51.437Z,17.23
2023-01-27T14:13:24.220Z,15.97
2023-01-27T14:16:02.481Z,18.13
2023-01-27T14:18:49.640Z,18.17
2023-01-27T14:21:51.760Z,17.83
2023-01-27T14:24:41.764Z,17.73
2023-01-27T14:27:38.521Z,19.17
2023-01-27T14:30:19.541Z,18.07
2023-01-27T14:33:23.117Z,19.47
2023-01-27T14:36:12.607Z,18.30
2023-01-27T14:39:19.011Z,18.30
2023-01-27T14:42:33.566Z,18.73
2023-01-27T14:45:25.590Z,19.83
2023-01-27T14:48:22.231Z,18.80
2023-01-27T14:51:39.706Z,18.70
2023-01-27T14:54:31.023Z,18.33
2023-01-27T14:57:08.066Z,19.73
2023-01-27T14:59:56.240Z,19.10
2023-01-27T15:02:40.184Z,20.60
2023-01-27T15:06:16.252Z,19.33
2023-01-27T15:08:46.295Z,25.97
2023-01-27T15:11:40.608Z,20.60
2023-01-27T15:14:59.313Z,20.90
2023-01-27T15:17:38.344Z,19.73
2023-01-27T15:20:52.234Z,20.57
2023-01-27T15:23:31.106Z,20.97
2023-01-27T15:26:02.248Z,21.50
2023-01-27T15:28:32.797Z,21.10
2023-01-27T15:31:09.677Z,18.13
2023-01-27T15:34:09.112Z,18.73
2023-01-27T15:36:40.235Z,20.50
2023-01-27T15:39:10.464Z,19.07
2023-01-27T15:42:10.479Z,19.97
2023-01-27T15:45:00.978Z,18.53
2023-01-27T15:47:35.551Z,18.73
2023-01-27T15:50:24.375Z,18.50
2023-01-27T15:52:52.233Z,17.07
2023-01-27T15:55:38.916Z,19.97
2023-01-27T15:58:08.280Z,19.30
2023-01-27T16:00:38.854Z,18.50
2023-01-27T16:03:21.699Z,19.00
2023-01-27T16:05:52.225Z,18.90
2023-01-27T16:08:20.607Z,19.63
2023-01-27T16:10:47.769Z,18.83
2023-01-27T16:13:28.739Z,20.40
2023-01-27T16:16:17.773Z,20.60
2023-01-27T16:19:23.776Z,21.07
2023-01-27T16:22:03.276Z,22.10
2023-01-27T16:24:56.372Z,23.27
2023-01-27T16:27:47.058Z,22.23
2023-01-27T16:30:47.174Z,22.77
2023-01-27T16:33:28.260Z,21.33
2023-01-27T16:36:36.201Z,21.80
2023-01-27T16:39:31.909Z,20.80
2023-01-27T16:42:00.061Z,19.97
2023-01-27T16:44:47.429Z,22.30
2023-01-27T16:47:25.067Z,21.47
2023-01-27T16:49:56.658Z,23.33
2023-01-27T16:52:41.379Z,25.00
2023-01-27T16:55:22.005Z,23.40
2023-01-27T16:57:50.688Z,22.00
2023-01-27T17:00:26.380Z,22.47
2023-01-27T17:02:56.377Z,22.10
2023-01-27T17:05:23.817Z,22.27
2023-01-27T17:08:13.744Z,23.30
2023-01-27T17:10:52.502Z,23.50
2023-01-27T17:13:48.478Z,25.80
2023-01-27T17:16:26.595Z,23.57
2023-01-27T17:18:56.340Z,21.73
2023-01-27T17:21:37.412Z,21.90
2023-01-27T17:24:32.836Z,21.73
2023-01-27T17:27:26.902Z,22.20
2023-01-27T17:30:05.790Z,21.10
2023-01-27T17:32:37.699Z,22.87
2023-01-27T17:35:21.783Z,23.07
2023-01-27T17:37:48.978Z,22.07
2023-01-27T17:40:20.787Z,22.33
2023-01-27T17:42:49.185Z,22.77
2023-01-27T17:45:34.837Z,23.47
2023-01-27T17:48:02.362Z,22.93
2023-01-27T17:50:36.350Z,24.03
2023-01-27T17:53:11.001Z,24.37
2023-01-27T17:55:38.753Z,29.73
2023-01-27T17:58:11.421Z,38.83
2023-01-27T18:00:43.195Z,23.13
2023-01-27T18:03:17.379Z,49.40
2023-01-27T18:05:47.432Z,58.07
2023-01-27T18:08:15.602Z,60.80
2023-01-27T18:10:44.279Z,46.47
2023-01-27T18:13:20.479Z,39.17
2023-01-27T18:16:07.224Z,61.20
2023-01-27T18:18:37.444Z,24.63
2023-01-27T18:21:06.778Z,26.20
2023-01-27T18:23:45.461Z,26.00
2023-01-27T18:26:33.901Z,25.10
2023-01-27T18:29:25.921Z,25.83
2023-01-27T18:32:13.289Z,26.00
2023-01-27T18:34:53.758Z,24.87
2023-01-27T18:37:31.143Z,26.97
2023-01-27T18:40:00.714Z,28.03
2023-01-27T18:42:31.094Z,26.70
2023-01-27T18:44:58.371Z,28.20
2023-01-27T18:47:35.840Z,26.50
2023-01-27T18:50:15.808Z,25.53
2023-01-27T18:52:44.399Z,26.63
2023-01-27T18:55:25.656Z,24.90
2023-01-27T18:57:56.420Z,27.27
2023-01-27T19:00:41.705Z,26.00
2023-01-27T19:03:15.868Z,25.53
2023-01-27T19:05:42.905Z,24.67
2023-01-27T19:08:19.462Z,24.03
2023-01-27T19:10:48.518Z,26.03
2023-01-27T19:13:16.851Z,26.10
2023-01-27T19:15:51.288Z,23.33
2023-01-27T19:18:34.444Z,25.30
2023-01-27T19:21:02.671Z,23.87
2023-01-27T19:23:29.855Z,24.70
2023-01-27T19:25:59.893Z,24.20
2023-01-27T19:28:38.485Z,23.93
2023-01-27T19:31:07.408Z,26.50
2023-01-27T19:33:37.195Z,24.23
2023-01-27T19:36:15.910Z,25.30
2023-01-27T19:38:43.033Z,24.17
2023-01-27T19:41:10.944Z,24.20
2023-01-27T19:43:38.308Z,25.27
2023-01-27T19:46:20.635Z,25.17
2023-01-27T19:48:49.439Z,22.63
2023-01-27T19:51:17.974Z,21.90
2023-01-27T19:53:46.049Z,20.93
2023-01-27T19:56:20.181Z,22.87
2023-01-27T19:58:52.767Z,22.07
2023-01-27T20:01:22.693Z,22.03
2023-01-27T20:03:51.415Z,23.77
2023-01-27T20:06:25.863Z,21.30
2023-01-27T20:08:59.983Z,22.70
2023-01-27T20:11:44.521Z,22.80
2023-01-27T20:14:15.109Z,21.70
2023-01-27T20:16:43.261Z,22.23
2023-01-27T20:19:15.028Z,23.13
2023-01-27T20:21:43.845Z,22.60
2023-01-27T20:24:16.824Z,23.20
2023-01-27T20:26:44.277Z,22.90
2023-01-27T20:29:11.498Z,23.33
2023-01-27T20:31:39.729Z,22.07
2023-01-27T20:34:07.149Z,22.90
2023-01-27T20:36:34.312Z,21.97
2023-01-27T20:39:01.622Z,20.83
2023-01-27T20:41:28.832Z,19.63
2023-01-27T20:43:58.276Z,19.97
2023-01-27T20:46:25.832Z,20.80
2023-01-27T20:48:53.080Z,21.47
2023-01-27T20:51:20.296Z,20.83
2023-01-27T20:53:47.460Z,21.23
2023-01-27T20:56:23.627Z,22.13
2023-01-27T20:58:51.300Z,21.30
2023-01-27T21:01:21.603Z,22.80
2023-01-27T21:03:49.406Z,21.10
2023-01-27T21:06:21.467Z,22.07
2023-01-27T21:08:49.595Z,22.03
2023-01-27T21:11:20.115Z,21.90
2023-01-27T21:13:48.635Z,20.67
2023-01-27T21:16:15.867Z,20.57
2023-01-27T21:18:44.240Z,20.63
2023-01-27T21:21:22.772Z,20.40
2023-01-27T21:23:50.079Z,18.77
2023-01-27T21:26:17.315Z,19.33
2023-01-27T21:28:44.648Z,17.73
2023-01-27T21:31:16.795Z,17.73
2023-01-27T21:33:51.165Z,17.40
2023-01-27T21:36:19.484Z,16.87
2023-01-27T21:38:47.256Z,17.83
2023-01-27T21:41:36.983Z,16.53
2023-01-27T21:44:24.590Z,16.30
2023-01-27T21:46:51.666Z,15.33
2023-01-27T21:49:18.809Z,16.90
2023-01-27T21:51:46.127Z,17.37
2023-01-27T21:54:13.300Z,16.97
2023-01-27T21:56:40.403Z,16.13
2023-01-27T21:59:08.163Z,17.00
2023-01-27T22:01:35.556Z,17.50
2023-01-27T22:04:04.588Z,16.30
2023-01-27T22:06:32.837Z,17.00
2023-01-27T22:08:59.916Z,16.67
2023-01-27T22:11:27.057Z,17.37
2023-01-27T22:13:54.152Z,16.87
2023-01-27T22:16:21.723Z,16.60
2023-01-27T22:18:48.979Z,16.23
2023-01-27T22:21:16.143Z,16.53
2023-01-27T22:23:44.988Z,15.57
2023-01-27T22:26:12.046Z,16.67
2023-01-27T22:28:39.151Z,16.30
2023-01-27T22:31:06.440Z,15.63
2023-01-27T22:33:33.579Z,16.70
2023-01-27T22:36:03.599Z,15.97
2023-01-27T22:38:30.914Z,16.17
2023-01-27T22:40:59.541Z,16.67
2023-01-27T22:43:26.671Z,16.70
2023-01-27T22:45:53.865Z,16.73
2023-01-27T22:48:21.166Z,16.60
2023-01-27T22:50:48.241Z,16.33
2023-01-27T22:53:15.311Z,15.57
2023-01-27T22:55:42.335Z,16.83
2023-01-27T22:58:09.788Z,16.37
2023-01-27T23:00:36.980Z,15.93
2023-01-27T23:03:04.243Z,17.43
2023-01-27T23:05:31.348Z,16.80
2023-01-27T23:07:58.404Z,16.40
2023-01-27T23:10:25.659Z,16.43
2023-01-27T23:12:52.781Z,16.97
2023-01-27T23:15:19.874Z,16.47
2023-01-27T23:17:49.034Z,15.97
2023-01-27T23:20:16.265Z,18.57
2023-01-27T23:22:43.612Z,18.10
2023-01-27T23:25:12.212Z,17.00
2023-01-27T23:27:41.163Z,16.53
2023-01-27T23:30:11.013Z,16.47
2023-01-27T23:32:38.821Z,16.80
2023-01-27T23:35:06.767Z,16.37
2023-01-27T23:37:34.191Z,17.57
2023-01-27T23:40:01.281Z,15.10
2023-01-27T23:42:28.404Z,15.10
2023-01-27T23:44:55.445Z,15.10
2023-01-27T23:47:22.639Z,16.43
2023-01-27T23:49:49.687Z,15.23
2023-01-27T23:52:16.808Z,14.87
2023-01-27T23:54:43.903Z,16.07
2023-01-27T23:57:10.982Z,16.10
2023-01-27T23:59:38.103Z,16.03
